Etusivu
METAR-TAF:

METAR-TAF

Lentoasemat :

Västeråsin lentoasema

Västerås, Ruotsi

Leveyspiiri: 59-35N, Pituuspiiri: 016-38E, korkeus merenpinnasta: 6 m

Tämänhetkinen sää

Tämä raportti tehtiin 37 minuuttia sitten, kello 09.20 UTC
Tuuli 9 kn etelästä/lounaasta
Lämpötila 7°C
Kosteus 93%
Ilmanpaine 1010 hPa
Näkyvyys: 5000 m
Pilvistä 500 ft:n korkeudessa

METAR: ESOW 170920Z 20009KT 5000 OVC005 07/06 Q1010 R19/290195

Aika: 10:57 (09:57 UTC)

Sääennuste

Tämä raportti tehtiin 1 tunti ja 27 minuuttia sitten, kello 08.30 UTC
Ennuste voimassa 17. päivästä klo 09 UTC - 17. päivään klo 15 UTC
Tuuli 8 kn etelästä
Näkyvyys: 5000 m
Hajanaisia pilviä 800 ft:n korkeudessa
Hajonneita pilviä 1500 ft:n korkeudessa
Ajoittain
17. päivästä klo 09 UTC - 17. päivään klo 15 UTC
Hajonneita pilviä 800 ft:n korkeudessa

TAF: ESOW 170830Z 1709/1715 18008KT 5000 SCT008 BKN015 TEMPO 1709/1715 BKN008

Säähavainnot ja -ennusteet yli 4000 lentoasemalta (METAR- ja TAF-raportit).

Käytössä olevat sääasemat on merkitty karttaan keltaisilla ja punaisilla pisteillä.

Aseta hiiri pisteen päälle nähdäksesi sääaseman nimen.

Klikkaa sitten nähdäksesi säähavainnot ja -ennusteet.

Kartan vaihtaminen: klikkaa mustalla rastilla varustettuja vihreitä pisteitä, niin voit zoomata sisään; viivalla varustettua vihreää pistettä, niin voit zoomata ulos tai vihreitä nuolia, niin pääset viereisille kartoille.


METAR-TAF: